createdAt,value
2022-11-07T17:01:39.716Z,10.00
2022-11-07T17:03:12.260Z,9.00
2022-11-07T17:04:43.965Z,11.20
2022-11-07T17:06:25.818Z,11.60
2022-11-07T17:07:57.482Z,9.80
2022-11-07T17:09:29.149Z,9.60
2022-11-07T17:11:00.820Z,9.60
2022-11-07T17:12:32.712Z,9.60
2022-11-07T17:14:04.380Z,10.00
2022-11-07T17:15:36.589Z,10.20
2022-11-07T17:17:08.486Z,11.60
2022-11-07T17:18:40.218Z,8.40
2022-11-07T17:20:49.110Z,11.20
2022-11-07T17:22:13.725Z,14.20
2022-11-07T17:23:45.417Z,10.00
2022-11-07T17:25:17.315Z,12.40
2022-11-07T17:26:49.017Z,13.00
2022-11-07T17:28:21.462Z,10.00
2022-11-07T17:29:53.454Z,7.00
2022-11-07T17:31:25.170Z,12.00
2022-11-07T17:32:56.952Z,12.40
2022-11-07T17:34:28.676Z,13.60
2022-11-07T17:36:00.433Z,10.20
2022-11-07T17:37:32.133Z,13.80
2022-11-07T17:39:08.021Z,10.80
2022-11-07T17:40:39.755Z,12.60
2022-11-07T17:42:12.429Z,13.60
2022-11-07T17:43:44.923Z,15.20
2022-11-07T17:45:16.858Z,14.00
2022-11-07T17:46:49.186Z,8.00
2022-11-07T17:48:20.915Z,13.40
2022-11-07T17:49:52.668Z,12.00
2022-11-07T17:51:26.703Z,10.80
2022-11-07T17:52:58.441Z,13.40
2022-11-07T17:54:30.195Z,11.80
2022-11-07T17:56:01.928Z,11.80
2022-11-07T17:57:33.716Z,12.00
2022-11-07T17:59:07.387Z,12.60
2022-11-07T18:00:39.085Z,14.60
2022-11-07T18:02:18.143Z,13.40
2022-11-07T18:03:50.559Z,13.60
2022-11-07T18:05:22.631Z,13.60
2022-11-07T18:06:54.397Z,13.20
2022-11-07T18:08:50.754Z,15.80
2022-11-07T18:10:17.983Z,17.00
2022-11-07T18:11:49.679Z,14.80
2022-11-07T18:13:21.418Z,13.00
2022-11-07T18:14:53.125Z,13.80
2022-11-07T18:16:26.625Z,16.00
2022-11-07T18:17:58.368Z,15.60
2022-11-07T18:19:30.217Z,15.40
2022-11-07T18:21:02.773Z,18.80
2022-11-07T18:22:35.247Z,17.00
2022-11-07T18:24:07.150Z,16.60
2022-11-07T18:25:38.841Z,14.80
2022-11-07T18:27:10.927Z,21.20
2022-11-07T18:28:43.091Z,37.00
2022-11-07T18:30:14.883Z,39.20
2022-11-07T18:31:50.598Z,51.80
2022-11-07T18:33:22.333Z,51.60
2022-11-07T18:34:54.092Z,54.50
2022-11-07T18:36:25.877Z,55.75
2022-11-07T18:37:57.585Z,68.25
2022-11-07T18:39:29.365Z,69.25
2022-11-07T18:41:07.469Z,82.50
2022-11-07T18:42:42.824Z,88.00
2022-11-07T18:44:14.830Z,86.25
2022-11-07T18:45:46.536Z,89.00
2022-11-07T18:47:18.269Z,95.50
2022-11-07T18:48:50.852Z,104.50
2022-11-07T18:50:22.630Z,102.40
2022-11-07T18:51:54.399Z,114.40
2022-11-07T18:53:26.504Z,128.25
2022-11-07T18:54:58.546Z,119.00
2022-11-07T18:56:30.354Z,127.25
2022-11-07T18:58:01.989Z,112.50
2022-11-07T18:59:34.333Z,123.50
2022-11-07T19:01:13.206Z,106.25
2022-11-07T19:02:44.963Z,127.50
2022-11-07T19:04:16.652Z,129.50
2022-11-07T19:05:48.564Z,127.75
2022-11-07T19:07:20.261Z,152.00
2022-11-07T19:08:52.101Z,150.50
2022-11-07T19:10:23.880Z,160.00
2022-11-07T19:11:56.613Z,167.00
2022-11-07T19:13:28.601Z,171.25
2022-11-07T19:15:00.295Z,161.75
2022-11-07T19:16:32.262Z,174.25
2022-11-07T19:18:04.174Z,185.25
2022-11-07T19:19:36.450Z,166.00
2022-11-07T19:21:08.613Z,183.50
2022-11-07T19:22:40.580Z,181.00
2022-11-07T19:24:13.186Z,173.50
2022-11-07T19:25:44.907Z,177.75
2022-11-07T19:27:16.913Z,177.75
2022-11-07T19:28:48.863Z,187.75
2022-11-07T19:30:20.706Z,189.33
2022-11-07T19:31:52.452Z,187.75
2022-11-07T19:33:24.180Z,174.67
2022-11-07T19:34:55.890Z,188.50
2022-11-07T19:36:27.640Z,186.75
2022-11-07T19:37:59.416Z,193.33
2022-11-07T19:39:36.754Z,313.25
2022-11-07T19:41:08.559Z,323.75
2022-11-07T19:42:40.298Z,300.50
2022-11-07T19:44:12.074Z,257.25
2022-11-07T19:45:44.210Z,217.00
2022-11-07T19:47:15.916Z,214.33
2022-11-07T19:48:48.145Z,224.67
2022-11-07T19:50:20.205Z,212.33
2022-11-07T19:51:52.481Z,197.33
2022-11-07T19:53:24.293Z,185.25
2022-11-07T19:54:56.115Z,191.25
2022-11-07T19:56:30.468Z,164.50
2022-11-07T19:58:02.159Z,176.00
2022-11-07T19:59:33.916Z,176.00
2022-11-07T20:01:12.898Z,180.00
2022-11-07T20:02:47.998Z,189.50
2022-11-07T20:04:20.619Z,194.25
2022-11-07T20:05:52.356Z,177.25
2022-11-07T20:07:24.074Z,179.75
2022-11-07T20:08:55.892Z,185.50
2022-11-07T20:10:27.699Z,201.25
2022-11-07T20:11:59.440Z,176.50
2022-11-07T20:13:31.173Z,178.75
2022-11-07T20:15:02.908Z,181.75
2022-11-07T20:16:35.046Z,179.75
2022-11-07T20:18:06.731Z,199.50
2022-11-07T20:19:38.597Z,186.50
2022-11-07T20:21:15.934Z,187.25
2022-11-07T20:22:48.939Z,189.00
2022-11-07T20:24:20.658Z,200.33
2022-11-07T20:25:52.438Z,200.00
2022-11-07T20:27:24.756Z,200.00
2022-11-07T20:28:56.607Z,199.67
2022-11-07T20:30:28.391Z,216.00
2022-11-07T20:32:00.135Z,238.33
2022-11-07T20:33:31.888Z,261.75
2022-11-07T20:35:04.004Z,241.00
2022-11-07T20:36:35.842Z,241.67
2022-11-07T20:38:07.579Z,236.75
2022-11-07T20:39:42.523Z,232.67
2022-11-07T20:41:14.337Z,243.00
2022-11-07T20:42:46.038Z,238.67
2022-11-07T20:44:17.757Z,245.00
2022-11-07T20:45:49.542Z,238.00
2022-11-07T20:47:21.638Z,233.33
2022-11-07T20:48:54.286Z,241.67
2022-11-07T20:50:26.040Z,257.00
2022-11-07T20:51:58.421Z,243.67
2022-11-07T20:53:30.040Z,251.00
2022-11-07T20:55:02.170Z,247.00
2022-11-07T20:56:33.962Z,254.75
2022-11-07T20:58:05.785Z,244.00
2022-11-07T20:59:37.717Z,238.50
2022-11-07T21:01:13.642Z,246.50
2022-11-07T21:02:45.449Z,236.00
2022-11-07T21:04:17.166Z,241.33
2022-11-07T21:05:50.957Z,240.00
2022-11-07T21:07:25.157Z,242.33
2022-11-07T21:08:57.042Z,232.67
2022-11-07T21:10:29.006Z,223.33
2022-11-07T21:12:01.314Z,225.67
2022-11-07T21:13:33.557Z,238.00
2022-11-07T21:15:05.935Z,237.67
2022-11-07T21:16:37.625Z,233.67
2022-11-07T21:18:10.209Z,226.67
2022-11-07T21:19:41.912Z,226.00
2022-11-07T21:21:20.276Z,222.67
2022-11-07T21:22:52.080Z,216.33
2022-11-07T21:24:23.800Z,220.67
2022-11-07T21:25:55.713Z,219.00
2022-11-07T21:27:27.417Z,386.80
2022-11-07T21:28:59.379Z,428.20
2022-11-07T21:30:31.106Z,300.00
2022-11-07T21:32:02.987Z,285.75
2022-11-07T21:33:34.691Z,277.50
2022-11-07T21:35:06.881Z,265.50
2022-11-07T21:36:38.674Z,238.25
2022-11-07T21:38:10.378Z,239.25
2022-11-07T21:39:42.103Z,244.50
2022-11-07T21:41:14.253Z,233.00
2022-11-07T21:42:46.016Z,217.00
2022-11-07T21:44:17.789Z,225.33
2022-11-07T21:45:49.529Z,231.67
2022-11-07T21:47:21.340Z,217.67
2022-11-07T21:48:54.708Z,215.33
2022-11-07T21:52:18.354Z,211.00
2022-11-07T21:53:50.246Z,209.67
2022-11-07T21:55:22.877Z,211.33
2022-11-07T21:56:54.562Z,199.67
2022-11-07T21:58:27.058Z,203.33
2022-11-07T21:59:58.815Z,201.00
2022-11-07T22:01:34.803Z,206.33
2022-11-07T22:03:06.995Z,199.67
2022-11-07T22:04:38.680Z,198.33
2022-11-07T22:06:10.459Z,188.33
2022-11-07T22:07:42.194Z,190.75
2022-11-07T22:09:15.706Z,182.00
2022-11-07T22:10:47.456Z,177.50
2022-11-07T22:12:19.132Z,185.75
2022-11-07T22:13:50.904Z,170.50
2022-11-07T22:15:22.610Z,169.75
2022-11-07T22:16:54.945Z,171.25
2022-11-07T22:18:26.631Z,164.25
2022-11-07T22:19:58.344Z,162.50
2022-11-07T22:21:31.491Z,162.50
2022-11-07T22:23:03.223Z,159.50
2022-11-07T22:24:35.045Z,187.00
2022-11-07T22:26:17.472Z,160.50
2022-11-07T22:27:49.274Z,324.80
2022-11-07T22:29:20.995Z,238.00
2022-11-07T22:30:52.736Z,220.33
2022-11-07T22:32:24.369Z,215.33
2022-11-07T22:33:56.465Z,208.67
2022-11-07T22:35:28.260Z,195.33
2022-11-07T22:36:59.926Z,189.25
2022-11-07T22:38:35.149Z,174.25
2022-11-07T22:40:07.734Z,186.25
2022-11-07T22:41:39.401Z,169.00
2022-11-07T22:43:11.260Z,168.25
2022-11-07T22:44:42.937Z,185.25
2022-11-07T22:46:16.654Z,168.75
2022-11-07T22:47:48.656Z,173.00
2022-11-07T22:49:20.450Z,163.00
2022-11-07T22:50:52.227Z,165.00
2022-11-07T22:52:23.943Z,172.00
2022-11-07T22:53:57.167Z,168.75
2022-11-07T22:55:30.422Z,161.50
2022-11-07T22:57:02.119Z,161.75
2022-11-07T22:58:33.939Z,158.00
2022-11-07T23:00:20.866Z,163.25
2022-11-07T23:01:53.734Z,150.00
2022-11-07T23:03:25.420Z,156.00
2022-11-07T23:04:57.103Z,155.00
2022-11-07T23:06:29.159Z,149.50
2022-11-07T23:08:00.864Z,149.25
2022-11-07T23:09:32.593Z,150.25
2022-11-07T23:12:58.323Z,146.50
2022-11-07T23:14:30.040Z,139.75
2022-11-07T23:16:01.749Z,124.00
2022-11-07T23:17:33.488Z,132.50
2022-11-07T23:19:07.424Z,134.25
2022-11-07T23:21:11.353Z,133.00
2022-11-07T23:22:43.063Z,126.00
2022-11-07T23:24:14.771Z,123.50
2022-11-07T23:25:46.501Z,121.25
2022-11-07T23:27:18.256Z,117.00
2022-11-07T23:28:50.127Z,119.75
2022-11-07T23:30:24.399Z,114.50
2022-11-07T23:31:56.124Z,106.25
2022-11-07T23:33:27.820Z,106.00
2022-11-07T23:34:59.472Z,108.25
